Time;durP1;ratioP1;P1;durP2;ratioP2;P2;SDS_P1;SDS_P2;PMS_P1;PMS_P2;Temp;Humidity;BMP_temperature;BMP_pressure;BME280_temperature;BME280_humidity;BME280_pressure;Samples;Min_cycle;Max_cycle;Signal;HPM_P1;HPM_P2
2022/12/24 00:06:48;;;;;;;12.27;8.60;;;;;;;6.70;83.88;98936.25;30604912;28;96657;-71
2022/12/24 00:21:48;;;;;;;12.95;8.27;;;;;;;6.71;83.08;98929.97;30613515;28;96673;-75
2022/12/24 00:36:49;;;;;;;13.38;8.00;;;;;;;6.65;83.54;98930.66;30623784;28;97361;-72
2022/12/24 00:51:49;;;;;;;17.15;7.35;;;;;;;6.67;83.87;98925.19;30622437;28;96560;-72
2022/12/24 01:06:50;;;;;;;15.32;9.27;;;;;;;6.55;83.19;98953.88;30620064;28;96723;-71
2022/12/24 01:21:51;;;;;;;15.10;9.77;;;;;;;6.51;83.44;98934.06;30619472;28;96816;-71
2022/12/24 01:36:52;;;;;;;17.33;10.77;;;;;;;6.46;83.46;98936.41;30618308;28;96697;-74
2022/12/24 01:52:00;;;;;;;16.00;10.88;;;;;;;6.54;83.41;98954.88;30616427;28;96685;-75
2022/12/24 02:07:00;;;;;;;11.75;8.00;;;;;;;6.37;83.82;98930.31;30614754;28;96650;-72
2022/12/24 02:22:27;;;;;;;9.02;5.93;;;;;;;6.19;83.91;98925.28;30613508;28;96662;-72
2022/12/24 02:37:33;;;;;;;13.30;8.05;;;;;;;6.18;84.64;98923.63;30610813;28;96928;-74
2022/12/24 02:52:37;;;;;;;13.13;7.03;;;;;;;6.20;84.88;98930.41;30610902;28;96679;-74
2022/12/24 03:07:57;;;;;;;12.90;7.43;;;;;;;6.32;84.66;98933.50;30609759;28;96947;-72
2022/12/24 03:22:58;;;;;;;10.77;6.57;;;;;;;6.45;84.83;98940.84;30608539;28;97312;-75
2022/12/24 03:37:58;;;;;;;10.55;7.07;;;;;;;6.48;84.53;98929.09;30605775;28;98262;-73
2022/12/24 03:52:58;;;;;;;8.07;3.92;;;;;;;6.44;84.59;98947.97;30611070;28;96594;-75
2022/12/24 04:07:59;;;;;;;6.55;2.78;;;;;;;6.60;85.02;98967.41;30624503;28;96906;-72
2022/12/24 04:22:59;;;;;;;4.43;2.47;;;;;;;7.28;85.49;98963.13;30622677;28;96763;-76
2022/12/24 04:38:00;;;;;;;4.93;2.78;;;;;;;7.62;85.15;98971.56;30621783;28;96839;-75
2022/12/24 04:53:00;;;;;;;5.97;2.45;;;;;;;7.75;84.89;98978.88;30620775;28;96926;-75
2022/12/24 05:08:00;;;;;;;8.05;3.15;;;;;;;7.82;85.04;98994.88;30618777;28;96636;-75
2022/12/24 05:38:19;;;;;;;7.33;2.03;;;;;;;8.25;85.08;99013.66;30618477;28;97056;-74
2022/12/24 05:53:21;;;;;;;6.22;2.92;;;;;;;8.32;85.33;99035.78;30614605;28;96740;-75
2022/12/24 06:08:21;;;;;;;4.23;2.27;;;;;;;8.37;84.81;99053.81;30613349;28;96698;-72
2022/12/24 06:23:22;;;;;;;5.25;1.90;;;;;;;8.53;84.89;99066.09;30609968;28;97185;-74
2022/12/24 06:38:23;;;;;;;4.57;1.47;;;;;;;8.68;83.99;99082.00;30610765;28;97380;-75
2022/12/24 06:53:23;;;;;;;5.35;2.15;;;;;;;8.74;84.01;99118.44;30607925;28;99450;-72
2022/12/24 07:08:24;;;;;;;6.15;2.88;;;;;;;8.66;83.98;99153.88;30608285;28;96685;-74
2022/12/24 07:23:24;;;;;;;6.15;2.63;;;;;;;8.62;83.99;99185.28;30604498;28;96771;-73
2022/12/24 07:38:25;;;;;;;4.63;1.92;;;;;;;8.59;84.43;99220.16;30625870;28;96720;-74
2022/12/24 07:53:26;;;;;;;2.38;1.80;;;;;;;8.53;84.13;99259.88;30624505;28;96975;-75
2022/12/24 08:08:27;;;;;;;3.93;2.43;;;;;;;8.54;84.22;99272.94;30624680;28;96645;-74
2022/12/24 08:23:27;;;;;;;6.95;3.90;;;;;;;8.51;84.21;99315.78;30621543;28;97304;-75
2022/12/24 08:38:28;;;;;;;6.78;4.75;;;;;;;8.46;84.29;99342.88;30620769;28;96646;-75
2022/12/24 08:53:28;;;;;;;8.18;5.95;;;;;;;8.39;83.92;99364.97;30618141;28;96806;-75
2022/12/24 09:08:29;;;;;;;9.77;6.22;;;;;;;8.36;83.87;99408.59;30617818;28;96779;-74
2022/12/24 09:23:29;;;;;;;8.15;5.57;;;;;;;8.50;83.72;99403.56;30615738;28;96566;-74
2022/12/24 09:38:30;;;;;;;8.15;5.60;;;;;;;8.58;83.63;99427.41;30614640;28;96707;-73
2022/12/24 09:54:03;;;;;;;8.88;5.13;;;;;;;8.70;83.14;99463.16;30613737;28;97331;-73
2022/12/24 10:09:09;;;;;;;8.30;5.30;;;;;;;8.70;83.23;99473.78;30606388;28;96816;-72
2022/12/24 10:24:22;;;;;;;8.53;5.80;;;;;;;8.71;82.69;99509.97;30611365;28;97517;-75
2022/12/24 10:39:25;;;;;;;8.07;5.93;;;;;;;8.55;82.83;99528.66;30609636;28;96718;-75
2022/12/24 10:54:27;;;;;;;10.90;6.83;;;;;;;8.38;82.86;99571.16;30608488;28;97467;-75
2022/12/24 11:09:34;;;;;;;12.30;7.77;;;;;;;8.24;82.99;99569.19;30606602;28;97472;-74
2022/12/24 11:24:37;;;;;;;9.87;6.10;;;;;;;8.24;83.29;99587.78;30605455;28;97325;-75
2022/12/24 11:39:40;;;;;;;12.07;6.82;;;;;;;8.19;83.21;99603.38;30605788;28;96864;-74
2022/12/24 11:54:55;;;;;;;12.40;6.57;;;;;;;8.20;83.28;99629.75;30604426;28;96817;-73
2022/12/24 12:10:02;;;;;;;11.50;4.80;;;;;;;8.19;83.34;99635.19;30601927;28;96738;-74
2022/12/24 12:25:09;;;;;;;9.60;4.57;;;;;;;8.65;83.43;99662.00;30620829;28;96588;-75
2022/12/24 12:40:16;;;;;;;11.40;3.80;;;;;;;8.70;82.72;99680.91;30619673;28;97432;-75
2022/12/24 12:55:22;;;;;;;13.80;3.63;;;;;;;9.09;82.27;99677.47;30619037;28;97220;-75
2022/12/24 13:10:22;;;;;;;10.30;3.07;;;;;;;9.46;81.30;99718.47;30616490;28;97354;-75
2022/12/24 13:25:33;;;;;;;8.73;3.45;;;;;;;9.52;80.07;99740.88;30616236;28;97143;-76
2022/12/24 13:40:34;;;;;;;13.27;4.33;;;;;;;9.33;80.21;99760.72;30615853;28;96669;-74
2022/12/24 13:55:34;;;;;;;6.15;2.85;;;;;;;9.42;79.24;99765.03;30614653;28;96830;-74
2022/12/24 14:10:41;;;;;;;10.60;2.90;;;;;;;9.36;78.89;99772.84;30613674;28;97782;-73
2022/12/24 14:25:42;;;;;;;9.83;3.27;;;;;;;9.22;77.71;99791.16;30612107;28;97242;-74
2022/12/24 14:40:54;;;;;;;8.30;3.63;;;;;;;8.40;77.54;99823.94;30609900;28;96753;-72
2022/12/24 14:55:55;;;;;;;7.07;3.10;;;;;;;7.84;77.86;99846.75;30609458;28;96875;-72
2022/12/24 15:11:00;;;;;;;10.00;3.58;;;;;;;7.35;78.14;99863.25;30608136;28;97184;-71
2022/12/24 15:26:33;;;;;;;17.33;5.67;;;;;;;7.43;78.90;99892.44;30607107;28;97171;-73
2022/12/24 15:57:24;;;;;;;15.10;4.60;;;;;;;7.49;78.85;99921.00;30623963;28;96880;-74
2022/12/24 16:12:25;;;;;;;13.77;4.63;;;;;;;7.40;79.05;99932.53;30624669;28;96773;-72
2022/12/24 16:27:26;;;;;;;7.70;3.30;;;;;;;7.56;78.53;99952.97;30623149;28;96741;-71
2022/12/24 16:57:45;;;;;;;8.53;3.70;;;;;;;7.51;77.61;99995.06;30622882;28;96646;-74
2022/12/24 17:12:45;;;;;;;12.90;4.60;;;;;;;7.26;78.34;100013.41;30621397;28;96868;-76
2022/12/24 17:27:46;;;;;;;15.05;6.47;;;;;;;7.26;78.33;100016.06;30617745;28;97571;-75
2022/12/24 17:42:46;;;;;;;17.30;6.03;;;;;;;7.15;78.35;100034.81;30615760;28;96829;-76
2022/12/24 17:57:47;;;;;;;62.00;25.27;;;;;;;7.15;78.21;100050.72;30615126;28;97242;-75
2022/12/24 18:12:47;;;;;;;22.80;10.15;;;;;;;7.51;78.48;100083.34;30611845;28;96756;-75
2022/12/24 18:27:47;;;;;;;14.90;5.03;;;;;;;7.55;77.91;100113.88;30612502;28;96745;-75
2022/12/24 18:42:48;;;;;;;14.95;6.25;;;;;;;7.58;77.97;100096.81;30611316;28;96647;-74
2022/12/24 18:57:48;;;;;;;20.52;8.70;;;;;;;7.44;77.16;100108.81;30609917;28;96708;-73
2022/12/24 19:12:49;;;;;;;12.80;5.63;;;;;;;7.13;77.53;100129.53;30607492;28;96701;-71
2022/12/24 19:27:49;;;;;;;15.40;5.57;;;;;;;7.12;77.75;100152.53;30618780;28;97339;-72
2022/12/24 19:42:51;;;;;;;11.27;6.07;;;;;;;7.25;78.16;100157.47;30628052;28;96614;-71
2022/12/24 19:57:51;;;;;;;13.67;6.00;;;;;;;6.84;77.09;100162.31;30626931;28;97361;-72
2022/12/24 20:12:52;;;;;;;22.52;7.90;;;;;;;6.41;77.66;100191.84;30624475;28;97217;-74
2022/12/24 20:27:52;;;;;;;15.88;6.97;;;;;;;6.10;78.47;100215.84;30624038;28;96834;-70
2022/12/24 20:42:53;;;;;;;21.65;9.63;;;;;;;6.04;78.40;100228.78;30621421;28;96755;-72
2022/12/24 20:57:53;;;;;;;22.33;11.60;;;;;;;6.01;79.38;100226.44;30621048;28;96699;-71
2022/12/24 21:12:57;;;;;;;21.13;9.30;;;;;;;6.04;79.65;100245.50;30619024;28;97463;-71
2022/12/24 21:27:58;;;;;;;9.10;4.57;;;;;;;6.03;79.45;100241.19;30617816;28;96677;-73
2022/12/24 21:42:58;;;;;;;6.85;3.08;;;;;;;5.81;79.00;100242.28;30617080;28;97138;-75
2022/12/24 21:57:58;;;;;;;13.60;5.75;;;;;;;5.83;80.11;100268.56;30614572;28;97129;-74
2022/12/24 22:12:59;;;;;;;10.98;5.88;;;;;;;5.76;79.76;100263.81;30613562;28;96707;-75
2022/12/24 22:28:00;;;;;;;14.82;7.80;;;;;;;5.61;79.64;100273.13;30613826;28;96789;-74
2022/12/24 22:43:00;;;;;;;14.13;7.07;;;;;;;5.27;79.87;100286.66;30612368;28;96928;-73
2022/12/24 22:58:01;;;;;;;11.10;5.50;;;;;;;5.39;81.14;100290.84;30610859;28;97454;-74
2022/12/24 23:28:21;;;;;;;11.60;5.55;;;;;;;5.19;80.92;100320.81;30609417;28;97395;-75
2022/12/24 23:43:22;;;;;;;17.70;7.97;;;;;;;5.55;81.17;100343.22;30608366;28;97433;-74
2022/12/24 23:58:23;;;;;;;13.07;6.70;;;;;;;5.43;81.02;100365.41;30607448;28;96635;-72
